createdAt,value
2018-04-23T00:01:18.623Z,15.77
2018-04-23T00:03:51.085Z,16.37
2018-04-23T00:06:24.248Z,16.10
2018-04-23T00:08:57.349Z,15.93
2018-04-23T00:11:29.963Z,16.50
2018-04-23T00:14:03.231Z,14.80
2018-04-23T00:16:36.582Z,16.10
2018-04-23T00:19:09.134Z,16.33
2018-04-23T00:21:41.583Z,16.37
2018-04-23T00:24:14.144Z,17.00
2018-04-23T00:26:47.323Z,17.17
2018-04-23T00:29:25.008Z,17.37
2018-04-23T00:31:57.374Z,16.20
2018-04-23T00:34:30.048Z,16.90
2018-04-23T00:37:03.403Z,16.23
2018-04-23T00:39:35.782Z,16.57
2018-04-23T00:42:08.378Z,15.67
2018-04-23T00:44:40.835Z,17.23
2018-04-23T00:47:13.252Z,17.67
2018-04-23T00:49:45.854Z,17.30
2018-04-23T00:52:19.042Z,17.37
2018-04-23T00:54:51.576Z,17.57
2018-04-23T00:57:24.148Z,17.10
2018-04-23T00:59:56.743Z,17.17
2018-04-23T01:02:30.028Z,18.67
2018-04-23T01:05:02.578Z,16.90
2018-04-23T01:07:35.053Z,17.70
2018-04-23T01:10:07.442Z,19.10
2018-04-23T01:12:40.279Z,19.33
2018-04-23T01:15:12.755Z,19.73
2018-04-23T01:17:45.831Z,17.47
2018-04-23T01:20:18.958Z,19.30
2018-04-23T01:22:51.515Z,18.23
2018-04-23T01:25:24.179Z,17.93
2018-04-23T01:27:56.821Z,18.20
2018-04-23T01:30:30.093Z,19.73
2018-04-23T01:33:03.360Z,17.30
2018-04-23T01:35:35.734Z,17.60
2018-04-23T01:38:08.281Z,17.53
2018-04-23T01:40:40.738Z,16.10
2018-04-23T01:43:13.048Z,16.87
2018-04-23T01:45:45.473Z,18.20
2018-04-23T01:48:18.122Z,16.77
2018-04-23T01:50:50.589Z,18.77
2018-04-23T01:53:23.119Z,19.13
2018-04-23T01:55:56.494Z,28.30
2018-04-23T01:58:28.968Z,38.73
2018-04-23T02:01:01.458Z,38.37
2018-04-23T02:03:34.242Z,32.03
2018-04-23T02:06:07.187Z,35.87
2018-04-23T02:08:39.903Z,41.40
2018-04-23T02:11:12.452Z,52.33
2018-04-23T02:13:44.929Z,37.67
2018-04-23T02:16:18.114Z,41.63
2018-04-23T02:18:50.675Z,33.43
2018-04-23T02:21:23.134Z,36.97
2018-04-23T02:23:55.714Z,32.03
2018-04-23T02:26:28.234Z,36.30
2018-04-23T02:29:00.681Z,39.17
2018-04-23T02:31:33.376Z,35.07
2018-04-23T02:34:05.905Z,34.27
2018-04-23T02:36:38.362Z,33.03
2018-04-23T02:39:10.920Z,31.80
2018-04-23T02:41:43.666Z,35.30
2018-04-23T02:44:16.260Z,31.57
2018-04-23T02:46:48.899Z,33.20
2018-04-23T02:49:21.359Z,35.10
2018-04-23T02:51:54.823Z,30.23
2018-04-23T02:54:27.835Z,37.17
2018-04-23T02:57:01.380Z,30.27
2018-04-23T02:59:34.059Z,34.00
2018-04-23T03:02:06.433Z,28.03
2018-04-23T03:04:39.098Z,28.63
2018-04-23T03:07:11.526Z,31.27
2018-04-23T03:09:44.113Z,30.17
2018-04-23T03:12:16.667Z,34.47
2018-04-23T03:14:49.019Z,32.57
2018-04-23T03:17:21.577Z,35.13
2018-04-23T03:19:54.925Z,32.10
2018-04-23T03:22:27.424Z,30.73
2018-04-23T03:25:00.159Z,34.33
2018-04-23T03:27:33.360Z,33.67
2018-04-23T03:30:05.953Z,40.67
2018-04-23T03:32:38.285Z,33.80
2018-04-23T03:35:11.518Z,35.60
2018-04-23T03:37:44.009Z,35.87
2018-04-23T03:40:16.510Z,36.40
2018-04-23T03:42:50.019Z,37.30
2018-04-23T03:45:22.408Z,34.07
2018-04-23T03:47:54.838Z,42.30
2018-04-23T03:50:27.427Z,35.43
2018-04-23T03:52:59.909Z,35.80
2018-04-23T03:55:32.549Z,34.33
2018-04-23T03:58:05.870Z,38.13
2018-04-23T04:00:38.409Z,37.20
2018-04-23T04:03:11.094Z,34.57
2018-04-23T04:05:43.500Z,32.80
2018-04-23T04:08:16.559Z,32.67
2018-04-23T04:10:49.704Z,37.27
2018-04-23T04:13:35.259Z,35.20
2018-04-23T04:16:20.185Z,39.57
2018-04-23T04:18:52.745Z,43.47
2018-04-23T04:21:26.156Z,37.77
2018-04-23T04:23:58.835Z,40.10
2018-04-23T04:26:31.266Z,45.90
2018-04-23T04:29:03.678Z,48.83
2018-04-23T04:31:36.099Z,41.80
2018-04-23T04:34:08.859Z,49.87
2018-04-23T04:36:41.578Z,41.40
2018-04-23T04:39:14.191Z,44.97
2018-04-23T04:41:46.766Z,45.33
2018-04-23T04:44:19.086Z,51.10
2018-04-23T04:46:51.590Z,47.37
2018-04-23T04:49:24.120Z,42.67
2018-04-23T04:51:56.628Z,46.37
2018-04-23T04:54:29.140Z,47.83
2018-04-23T04:57:02.381Z,43.67
2018-04-23T04:59:34.871Z,45.07
2018-04-23T05:02:08.129Z,42.20
2018-04-23T05:04:41.500Z,45.57
2018-04-23T05:07:14.040Z,38.43
2018-04-23T05:09:47.244Z,42.13
2018-04-23T05:12:19.811Z,38.70
2018-04-23T05:14:52.369Z,38.77
2018-04-23T05:17:24.874Z,33.97
2018-04-23T05:19:58.119Z,36.13
2018-04-23T05:22:30.859Z,37.50
2018-04-23T05:25:03.375Z,41.63
2018-04-23T05:27:36.131Z,36.23
2018-04-23T05:30:08.871Z,34.73
2018-04-23T05:32:41.360Z,37.50
2018-04-23T05:35:14.549Z,36.03
2018-04-23T05:37:47.701Z,30.80
2018-04-23T05:40:20.128Z,34.07
2018-04-23T05:42:53.939Z,37.50
2018-04-23T05:45:26.734Z,36.40
2018-04-23T05:47:59.258Z,35.03
2018-04-23T05:50:31.843Z,35.17
2018-04-23T05:53:04.513Z,35.90
2018-04-23T05:55:37.023Z,39.63
2018-04-23T05:58:09.378Z,41.13
2018-04-23T06:00:41.943Z,42.60
2018-04-23T06:03:14.550Z,35.87
2018-04-23T06:05:47.109Z,37.07
2018-04-23T06:08:19.451Z,39.80
2018-04-23T06:10:52.719Z,38.50
2018-04-23T06:13:25.360Z,39.07
2018-04-23T06:15:57.899Z,38.80
2018-04-23T06:18:31.088Z,38.03
2018-04-23T06:21:03.806Z,36.77
2018-04-23T06:23:36.236Z,40.13
2018-04-23T06:26:08.731Z,38.37
2018-04-23T06:28:41.459Z,38.37
2018-04-23T06:31:14.133Z,38.43
2018-04-23T06:33:46.773Z,38.73
2018-04-23T06:36:19.327Z,36.17
2018-04-23T06:38:52.662Z,34.93
2018-04-23T06:41:25.229Z,35.80
2018-04-23T06:43:57.639Z,33.93
2018-04-23T06:46:30.198Z,30.57
2018-04-23T06:49:04.272Z,30.43
2018-04-23T06:51:36.696Z,30.20
2018-04-23T06:54:09.303Z,28.80
2018-04-23T06:56:41.764Z,26.47
2018-04-23T06:59:14.237Z,27.03
2018-04-23T07:01:47.812Z,28.27
2018-04-23T07:04:20.288Z,27.60
2018-04-23T07:06:52.678Z,26.37
2018-04-23T07:09:25.948Z,23.90
2018-04-23T07:11:58.530Z,21.87
2018-04-23T07:14:31.064Z,21.83
2018-04-23T07:17:03.468Z,20.90
2018-04-23T07:19:36.058Z,20.70
2018-04-23T07:22:08.770Z,20.17
2018-04-23T07:24:41.320Z,20.97
2018-04-23T07:27:15.084Z,21.03
2018-04-23T07:29:48.469Z,20.67
2018-04-23T07:32:20.937Z,19.83
2018-04-23T07:34:53.559Z,21.63
2018-04-23T07:37:26.095Z,21.83
2018-04-23T07:40:00.060Z,23.60
2018-04-23T07:42:33.397Z,23.80
2018-04-23T07:45:06.028Z,22.10
2018-04-23T07:47:38.454Z,23.47
2018-04-23T07:50:11.779Z,21.03
2018-04-23T07:52:44.947Z,20.77
2018-04-23T07:55:18.084Z,20.87
2018-04-23T07:57:50.565Z,20.63
2018-04-23T08:00:23.048Z,20.23
2018-04-23T08:02:55.519Z,21.93
2018-04-23T08:05:28.885Z,20.07
2018-04-23T08:08:02.180Z,21.93
2018-04-23T08:10:34.653Z,23.20
2018-04-23T08:13:07.072Z,21.93
2018-04-23T08:15:39.540Z,22.23
2018-04-23T08:18:11.987Z,23.83
2018-04-23T08:20:44.624Z,22.90
2018-04-23T08:23:17.287Z,23.67
2018-04-23T08:25:49.872Z,23.37
2018-04-23T08:28:22.507Z,24.53
2018-04-23T08:30:54.966Z,25.47
2018-04-23T08:33:28.411Z,26.60
2018-04-23T08:36:00.897Z,26.30
2018-04-23T08:38:33.237Z,24.77
2018-04-23T08:41:06.320Z,27.73
2018-04-23T08:43:38.883Z,27.87
2018-04-23T08:46:11.375Z,28.57
2018-04-23T08:48:43.789Z,28.17
2018-04-23T08:51:16.216Z,30.23
2018-04-23T08:53:49.564Z,30.90
2018-04-23T08:56:22.082Z,30.43
2018-04-23T08:58:54.700Z,30.00
2018-04-23T09:01:27.345Z,30.40
2018-04-23T09:03:59.935Z,27.43
2018-04-23T09:06:32.611Z,27.40
2018-04-23T09:09:05.272Z,23.87
2018-04-23T09:11:38.605Z,19.87
2018-04-23T09:14:11.144Z,19.00
2018-04-23T09:16:43.570Z,17.27
2018-04-23T09:19:17.060Z,17.33
2018-04-23T09:21:50.401Z,16.30
2018-04-23T09:24:23.031Z,15.07
2018-04-23T09:26:55.650Z,14.53
2018-04-23T09:29:28.740Z,14.17
2018-04-23T09:32:01.102Z,13.23
2018-04-23T09:34:33.688Z,12.17
2018-04-23T09:37:07.184Z,12.37
2018-04-23T09:39:39.905Z,11.77
2018-04-23T09:42:12.318Z,10.77
2018-04-23T09:44:45.564Z,11.23
2018-04-23T09:47:18.688Z,9.90
2018-04-23T09:49:51.100Z,10.27
2018-04-23T09:52:23.743Z,9.97
2018-04-23T09:54:56.253Z,9.60
2018-04-23T09:57:29.455Z,10.13
2018-04-23T10:00:02.019Z,8.90
2018-04-23T10:02:34.605Z,8.57
2018-04-23T10:05:07.217Z,8.20
2018-04-23T10:07:39.655Z,9.43
2018-04-23T10:10:12.834Z,9.60
2018-04-23T10:12:46.063Z,10.67
2018-04-23T10:15:18.410Z,10.30
2018-04-23T10:17:51.010Z,11.57
2018-04-23T10:20:23.339Z,11.07
2018-04-23T10:22:56.776Z,10.90
2018-04-23T10:25:29.977Z,11.50
2018-04-23T10:28:02.709Z,11.40
2018-04-23T10:30:35.406Z,12.27
2018-04-23T10:33:08.749Z,11.97
2018-04-23T10:35:41.368Z,12.83
2018-04-23T10:38:14.463Z,12.40
2018-04-23T10:40:47.069Z,11.33
2018-04-23T10:43:19.656Z,11.53
2018-04-23T10:45:51.989Z,13.90
2018-04-23T10:48:24.686Z,14.60
2018-04-23T10:50:57.223Z,15.40
2018-04-23T10:53:29.680Z,16.50
2018-04-23T10:56:02.327Z,17.40
2018-04-23T10:58:35.036Z,16.93
2018-04-23T11:01:07.587Z,17.63
2018-04-23T11:03:41.456Z,17.77
2018-04-23T11:06:13.948Z,15.63
2018-04-23T11:08:47.126Z,15.80
2018-04-23T11:11:20.337Z,15.60
2018-04-23T11:13:53.012Z,18.73
2018-04-23T11:16:26.328Z,18.47
2018-04-23T11:18:58.959Z,17.67
2018-04-23T11:21:32.307Z,16.30
2018-04-23T11:24:04.814Z,15.87
2018-04-23T11:26:37.994Z,14.50
2018-04-23T11:29:10.518Z,14.30
2018-04-23T11:31:43.085Z,14.80
2018-04-23T11:34:15.488Z,16.37
2018-04-23T11:36:48.607Z,15.27
2018-04-23T11:39:21.847Z,14.70
2018-04-23T11:41:54.537Z,14.00
2018-04-23T11:44:26.959Z,15.23
2018-04-23T11:46:59.497Z,15.03
2018-04-23T11:49:32.007Z,15.53
2018-04-23T11:52:04.439Z,16.77
2018-04-23T11:54:38.769Z,15.50
2018-04-23T11:57:11.898Z,16.30
2018-04-23T11:59:44.541Z,17.17
2018-04-23T12:02:17.715Z,15.05
2018-04-23T12:04:50.410Z,14.40
2018-04-23T12:07:22.967Z,14.05
2018-04-23T12:09:55.352Z,15.18
2018-04-23T12:12:28.769Z,15.75
2018-04-23T12:15:02.150Z,14.20
2018-04-23T12:17:34.806Z,13.18
2018-04-23T12:20:07.243Z,13.90
2018-04-23T12:22:39.640Z,11.23
2018-04-23T12:25:12.072Z,12.17
2018-04-23T12:27:45.334Z,12.57
2018-04-23T12:30:18.039Z,12.73
2018-04-23T12:32:50.732Z,11.65
2018-04-23T12:35:24.026Z,12.57
2018-04-23T12:37:57.395Z,12.30
2018-04-23T12:40:29.951Z,11.50
2018-04-23T12:43:02.341Z,10.70
2018-04-23T12:45:35.555Z,9.95
2018-04-23T12:48:08.197Z,12.18
2018-04-23T12:50:40.670Z,10.98
2018-04-23T12:53:14.072Z,11.85
2018-04-23T12:55:47.311Z,11.50
2018-04-23T12:58:19.730Z,12.30
2018-04-23T13:00:52.645Z,9.57
2018-04-23T13:03:25.015Z,9.30
2018-04-23T13:05:57.651Z,10.27
2018-04-23T13:08:30.258Z,9.48
2018-04-23T13:11:02.667Z,9.93
2018-04-23T13:13:35.676Z,9.25
2018-04-23T13:16:08.386Z,9.20
2018-04-23T13:18:40.864Z,9.50
2018-04-23T13:21:13.322Z,9.15
2018-04-23T13:23:46.672Z,8.88
2018-04-23T13:26:19.104Z,7.90
2018-04-23T13:28:51.812Z,8.57
2018-04-23T13:31:24.777Z,8.02
2018-04-23T13:33:57.345Z,7.47
2018-04-23T13:36:29.844Z,8.07
2018-04-23T13:39:03.515Z,8.15
2018-04-23T13:41:36.047Z,7.80
2018-04-23T13:44:09.173Z,8.90
2018-04-23T13:46:42.590Z,8.40
2018-04-23T13:49:15.085Z,7.50
2018-04-23T13:51:47.536Z,7.35
2018-04-23T13:54:19.937Z,7.62
2018-04-23T13:56:52.327Z,8.30
2018-04-23T13:59:24.945Z,8.52
2018-04-23T14:01:57.540Z,7.47
2018-04-23T14:04:30.928Z,7.70
2018-04-23T14:07:03.762Z,7.70
2018-04-23T14:09:36.228Z,8.23
2018-04-23T14:12:15.556Z,8.52
2018-04-23T14:14:48.030Z,9.05
2018-04-23T14:17:21.215Z,8.90
2018-04-23T14:19:53.564Z,8.18
2018-04-23T14:22:26.155Z,8.70
2018-04-23T14:24:58.771Z,7.78
2018-04-23T14:27:31.318Z,7.47
2018-04-23T14:30:03.935Z,6.22
2018-04-23T14:32:36.548Z,7.03
2018-04-23T14:35:09.156Z,7.80
2018-04-23T14:37:41.729Z,8.43
2018-04-23T14:40:14.399Z,8.02
2018-04-23T14:42:46.967Z,8.30
2018-04-23T14:45:20.085Z,7.28
2018-04-23T14:47:52.648Z,7.10
2018-04-23T14:50:25.146Z,8.10
2018-04-23T14:52:58.173Z,8.73
2018-04-23T14:55:30.700Z,7.50
2018-04-23T14:58:03.907Z,6.72
2018-04-23T15:00:37.028Z,7.57
2018-04-23T15:03:09.607Z,7.68
2018-04-23T15:05:42.971Z,7.78
2018-04-23T15:08:16.924Z,7.50
2018-04-23T15:10:49.403Z,7.15
2018-04-23T15:13:22.111Z,7.45
2018-04-23T15:15:54.730Z,7.35
2018-04-23T15:18:27.463Z,7.35
2018-04-23T15:21:00.173Z,7.78
2018-04-23T15:23:32.993Z,8.20
2018-04-23T15:26:05.597Z,6.95
2018-04-23T15:28:38.159Z,9.20
2018-04-23T15:31:10.569Z,8.45
2018-04-23T15:33:43.223Z,8.80
2018-04-23T15:36:16.604Z,8.35
2018-04-23T15:38:49.142Z,9.43
2018-04-23T15:41:21.844Z,9.52
2018-04-23T15:43:54.662Z,8.27
2018-04-23T15:46:27.183Z,8.10
2018-04-23T15:49:00.310Z,7.60
2018-04-23T15:51:33.068Z,8.20
2018-04-23T15:54:05.477Z,7.00
2018-04-23T15:56:37.892Z,6.40
2018-04-23T15:59:10.734Z,7.30
2018-04-23T16:01:43.597Z,6.85
2018-04-23T16:04:16.100Z,7.82
2018-04-23T16:06:48.811Z,8.05
2018-04-23T16:09:21.574Z,7.05
2018-04-23T16:11:54.200Z,8.85
2018-04-23T16:14:26.721Z,8.48
2018-04-23T16:16:59.096Z,9.18
2018-04-23T16:19:32.691Z,9.57
2018-04-23T16:22:05.196Z,9.43
2018-04-23T16:24:37.992Z,9.32
2018-04-23T16:27:10.509Z,8.75
2018-04-23T16:29:43.117Z,7.43
2018-04-23T16:32:15.505Z,8.30
2018-04-23T16:34:48.657Z,8.05
2018-04-23T16:37:21.029Z,8.57
2018-04-23T16:39:53.565Z,8.35
2018-04-23T16:42:26.215Z,8.37
2018-04-23T16:44:59.098Z,9.20
2018-04-23T16:47:31.571Z,8.67
2018-04-23T16:50:04.491Z,9.57
2018-04-23T16:52:36.886Z,9.17
2018-04-23T16:55:09.378Z,8.77
2018-04-23T16:57:42.099Z,9.07
2018-04-23T17:00:14.808Z,8.70
2018-04-23T17:02:47.518Z,8.17
2018-04-23T17:05:20.261Z,7.53
2018-04-23T17:07:52.731Z,7.43
2018-04-23T17:10:26.121Z,8.73
2018-04-23T17:12:58.790Z,8.13
2018-04-23T17:15:32.344Z,7.43
2018-04-23T17:18:05.089Z,7.87
2018-04-23T17:20:37.621Z,7.95
2018-04-23T17:23:10.426Z,8.43
2018-04-23T17:25:43.117Z,6.87
2018-04-23T17:28:15.672Z,6.90
2018-04-23T17:30:48.180Z,6.77
2018-04-23T17:33:21.677Z,6.53
2018-04-23T17:35:54.169Z,7.30
2018-04-23T17:38:27.566Z,7.40
2018-04-23T17:41:00.209Z,8.10
2018-04-23T17:43:33.521Z,7.03
2018-04-23T17:46:06.013Z,7.50
2018-04-23T17:48:39.023Z,7.20
2018-04-23T17:51:13.302Z,7.73
2018-04-23T17:53:45.843Z,7.17
2018-04-23T17:56:18.791Z,7.53
2018-04-23T17:58:51.657Z,7.53
2018-04-23T18:01:24.347Z,7.43
2018-04-23T18:03:51.478Z,7.53
2018-04-23T18:06:18.586Z,6.30
2018-04-23T18:08:52.040Z,6.13
2018-04-23T18:11:19.142Z,6.87
2018-04-23T18:13:45.958Z,7.83
2018-04-23T18:16:13.455Z,6.23
2018-04-23T18:18:39.877Z,5.97
2018-04-23T18:21:06.462Z,6.00
2018-04-23T18:23:33.329Z,6.07
2018-04-23T18:26:00.008Z,6.17
2018-04-23T18:28:26.389Z,6.23
2018-04-23T18:30:52.922Z,5.43
2018-04-23T18:33:20.314Z,5.70
2018-04-23T18:35:46.937Z,5.60
2018-04-23T18:38:13.500Z,5.87
2018-04-23T18:40:40.633Z,6.27
2018-04-23T18:43:07.233Z,5.77
2018-04-23T18:45:35.572Z,5.37
2018-04-23T18:48:02.347Z,5.97
2018-04-23T18:50:31.277Z,5.03
2018-04-23T18:52:58.547Z,4.70
2018-04-23T18:55:25.994Z,4.93
2018-04-23T18:57:52.926Z,5.80
2018-04-23T19:00:20.173Z,4.90
2018-04-23T19:02:46.684Z,5.53
2018-04-23T19:05:17.845Z,5.27
2018-04-23T19:07:45.432Z,5.80
2018-04-23T19:10:11.906Z,5.83
2018-04-23T19:12:39.116Z,6.20
2018-04-23T19:15:05.803Z,5.83
2018-04-23T19:17:34.472Z,6.43
2018-04-23T19:20:01.899Z,6.20
2018-04-23T19:22:28.588Z,5.90
2018-04-23T19:24:55.798Z,5.73
2018-04-23T19:27:22.398Z,5.67
2018-04-23T19:29:49.078Z,5.70
2018-04-23T19:32:15.859Z,5.63
2018-04-23T19:34:42.587Z,6.33
2018-04-23T19:37:10.352Z,6.20
2018-04-23T19:39:37.796Z,5.97
2018-04-23T19:42:04.586Z,6.20
2018-04-23T19:44:31.947Z,5.77
2018-04-23T19:46:59.721Z,6.33
2018-04-23T19:49:27.098Z,6.57
2018-04-23T19:51:54.544Z,6.97
2018-04-23T19:54:21.264Z,6.53
2018-04-23T19:56:48.214Z,6.10
2018-04-23T19:59:15.022Z,6.57
2018-04-23T20:01:42.609Z,6.73
2018-04-23T20:04:09.759Z,6.37
2018-04-23T20:06:43.267Z,6.80
2018-04-23T20:09:16.664Z,6.60
2018-04-23T20:11:49.538Z,6.53
2018-04-23T20:14:22.987Z,7.20
2018-04-23T20:16:55.529Z,7.70
2018-04-23T20:19:29.400Z,8.83
2018-04-23T20:22:02.216Z,7.80
2018-04-23T20:24:34.775Z,7.90
2018-04-23T20:27:07.507Z,9.00
2018-04-23T20:29:40.058Z,8.60
2018-04-23T20:32:12.632Z,8.37
2018-04-23T20:34:46.468Z,8.17
2018-04-23T20:37:19.077Z,8.83
2018-04-23T20:39:51.686Z,9.33
2018-04-23T20:42:26.523Z,9.73
2018-04-23T20:45:00.325Z,9.17
2018-04-23T20:47:32.812Z,8.90
2018-04-23T20:50:05.556Z,7.70
2018-04-23T20:52:38.079Z,8.00
2018-04-23T20:55:11.847Z,8.23
2018-04-23T20:57:44.998Z,7.90
2018-04-23T21:00:17.644Z,8.67
2018-04-23T21:02:50.310Z,8.30
2018-04-23T21:05:22.875Z,8.97
2018-04-23T21:07:55.765Z,9.43
2018-04-23T21:10:28.152Z,8.77
2018-04-23T21:13:01.155Z,8.90
2018-04-23T21:15:34.143Z,9.53
2018-04-23T21:18:06.661Z,9.67
2018-04-23T21:20:39.470Z,9.70
2018-04-23T21:23:12.116Z,9.33
2018-04-23T21:25:44.632Z,9.23
2018-04-23T21:28:17.172Z,9.37
2018-04-23T21:30:49.913Z,9.37
2018-04-23T21:33:22.688Z,8.67
2018-04-23T21:35:55.245Z,8.80
2018-04-23T21:38:28.117Z,9.20
2018-04-23T21:41:00.535Z,9.03
2018-04-23T21:43:33.420Z,9.73
2018-04-23T21:46:05.796Z,9.20
2018-04-23T21:48:38.987Z,9.43
2018-04-23T21:51:11.403Z,9.83
2018-04-23T21:53:43.847Z,9.57
2018-04-23T21:56:16.475Z,9.83
2018-04-23T21:58:49.127Z,10.63
2018-04-23T22:01:21.651Z,9.97
2018-04-23T22:03:54.052Z,9.53
2018-04-23T22:06:26.576Z,9.37
2018-04-23T22:08:59.042Z,10.30
2018-04-23T22:11:31.558Z,10.83
2018-04-23T22:14:04.990Z,10.80
2018-04-23T22:16:37.600Z,10.30
2018-04-23T22:19:09.987Z,10.57
2018-04-23T22:21:42.480Z,10.33
2018-04-23T22:24:14.987Z,11.60
2018-04-23T22:26:47.551Z,11.30
2018-04-23T22:29:20.990Z,12.00
2018-04-23T22:31:53.452Z,11.00
2018-04-23T22:34:25.948Z,10.83
2018-04-23T22:36:58.406Z,10.53
2018-04-23T22:39:30.886Z,11.40
2018-04-23T22:42:03.425Z,11.70
2018-04-23T22:44:35.797Z,10.80
2018-04-23T22:47:08.203Z,12.33
2018-04-23T22:49:40.527Z,12.70
2018-04-23T22:52:13.182Z,12.17
2018-04-23T22:54:46.368Z,11.40
2018-04-23T22:57:18.853Z,11.27
2018-04-23T22:59:51.628Z,11.87
2018-04-23T23:02:24.246Z,12.20
2018-04-23T23:04:56.696Z,12.40
2018-04-23T23:07:29.976Z,12.90
2018-04-23T23:10:02.499Z,11.63
2018-04-23T23:12:35.110Z,12.93
2018-04-23T23:15:08.185Z,12.53
2018-04-23T23:17:41.362Z,13.03
2018-04-23T23:20:14.525Z,13.50
2018-04-23T23:22:47.154Z,11.10
2018-04-23T23:25:19.724Z,12.47
2018-04-23T23:27:52.266Z,12.07
2018-04-23T23:30:24.949Z,13.57
2018-04-23T23:32:59.157Z,12.90
2018-04-23T23:35:32.245Z,13.30
2018-04-23T23:38:04.797Z,13.53
2018-04-23T23:40:37.110Z,12.27
2018-04-23T23:43:10.572Z,13.40
2018-04-23T23:45:43.881Z,12.23
2018-04-23T23:48:16.460Z,13.97
2018-04-23T23:50:49.010Z,14.10
2018-04-23T23:53:21.570Z,14.23
2018-04-23T23:55:55.174Z,14.97
2018-04-23T23:58:27.739Z,14.73
